sensor_id;sensor_type;location;lat;lon;timestamp;P1;durP1;ratioP1;P2;durP2;ratioP2
8291;SDS011;4184;42.724;23.308;2022-07-23T00:00:49;5.00;;;4.50;;
8291;SDS011;4184;42.724;23.308;2022-07-23T00:03:18;5.67;;;4.53;;
8291;SDS011;4184;42.724;23.308;2022-07-23T00:05:46;4.60;;;4.20;;
8291;SDS011;4184;42.724;23.308;2022-07-23T00:08:13;5.37;;;4.30;;
8291;SDS011;4184;42.724;23.308;2022-07-23T00:10:41;5.27;;;4.40;;
8291;SDS011;4184;42.724;23.308;2022-07-23T00:13:08;4.60;;;4.10;;
8291;SDS011;4184;42.724;23.308;2022-07-23T00:15:37;4.20;;;3.80;;
8291;SDS011;4184;42.724;23.308;2022-07-23T00:18:04;4.67;;;3.87;;
8291;SDS011;4184;42.724;23.308;2022-07-23T00:20:33;5.03;;;4.30;;
8291;SDS011;4184;42.724;23.308;2022-07-23T00:23:01;6.90;;;4.37;;
8291;SDS011;4184;42.724;23.308;2022-07-23T00:25:28;7.03;;;4.50;;
8291;SDS011;4184;42.724;23.308;2022-07-23T00:27:56;4.47;;;4.03;;
8291;SDS011;4184;42.724;23.308;2022-07-23T00:30:24;4.33;;;3.93;;
8291;SDS011;4184;42.724;23.308;2022-07-23T00:32:55;4.90;;;4.07;;
8291;SDS011;4184;42.724;23.308;2022-07-23T00:35:23;5.10;;;4.33;;
8291;SDS011;4184;42.724;23.308;2022-07-23T00:37:53;5.97;;;4.43;;
8291;SDS011;4184;42.724;23.308;2022-07-23T00:40:21;4.57;;;4.17;;
8291;SDS011;4184;42.724;23.308;2022-07-23T00:42:49;5.97;;;4.80;;
8291;SDS011;4184;42.724;23.308;2022-07-23T00:45:17;4.93;;;4.33;;
8291;SDS011;4184;42.724;23.308;2022-07-23T00:47:44;4.70;;;4.30;;
8291;SDS011;4184;42.724;23.308;2022-07-23T00:50:13;5.87;;;4.20;;
8291;SDS011;4184;42.724;23.308;2022-07-23T00:52:41;8.27;;;4.83;;
8291;SDS011;4184;42.724;23.308;2022-07-23T00:55:10;7.03;;;4.23;;
8291;SDS011;4184;42.724;23.308;2022-07-23T00:57:39;5.73;;;4.57;;
8291;SDS011;4184;42.724;23.308;2022-07-23T01:00:09;5.10;;;4.60;;
8291;SDS011;4184;42.724;23.308;2022-07-23T01:02:38;5.57;;;4.77;;
8291;SDS011;4184;42.724;23.308;2022-07-23T01:05:06;4.87;;;4.37;;
8291;SDS011;4184;42.724;23.308;2022-07-23T01:07:35;9.40;;;4.80;;
8291;SDS011;4184;42.724;23.308;2022-07-23T01:10:02;5.83;;;4.23;;
8291;SDS011;4184;42.724;23.308;2022-07-23T01:12:52;6.10;;;5.10;;
8291;SDS011;4184;42.724;23.308;2022-07-23T01:15:20;5.30;;;4.27;;
8291;SDS011;4184;42.724;23.308;2022-07-23T01:17:47;6.40;;;4.30;;
8291;SDS011;4184;42.724;23.308;2022-07-23T01:20:15;5.67;;;4.30;;
8291;SDS011;4184;42.724;23.308;2022-07-23T01:22:44;4.30;;;3.87;;
8291;SDS011;4184;42.724;23.308;2022-07-23T01:25:12;5.77;;;4.50;;
8291;SDS011;4184;42.724;23.308;2022-07-23T01:27:40;4.20;;;3.80;;
8291;SDS011;4184;42.724;23.308;2022-07-23T01:30:08;10.43;;;4.27;;
8291;SDS011;4184;42.724;23.308;2022-07-23T01:32:37;5.93;;;4.03;;
8291;SDS011;4184;42.724;23.308;2022-07-23T01:35:05;4.93;;;4.20;;
8291;SDS011;4184;42.724;23.308;2022-07-23T01:37:34;6.57;;;4.00;;
8291;SDS011;4184;42.724;23.308;2022-07-23T01:40:04;4.80;;;4.27;;
8291;SDS011;4184;42.724;23.308;2022-07-23T01:42:33;5.00;;;4.03;;
8291;SDS011;4184;42.724;23.308;2022-07-23T01:45:01;4.40;;;4.00;;
8291;SDS011;4184;42.724;23.308;2022-07-23T01:47:29;4.90;;;4.17;;
8291;SDS011;4184;42.724;23.308;2022-07-23T01:49:57;5.57;;;4.37;;
8291;SDS011;4184;42.724;23.308;2022-07-23T01:52:24;4.47;;;3.87;;
8291;SDS011;4184;42.724;23.308;2022-07-23T01:54:52;4.17;;;3.70;;
8291;SDS011;4184;42.724;23.308;2022-07-23T01:57:21;5.30;;;4.10;;
8291;SDS011;4184;42.724;23.308;2022-07-23T01:59:48;4.93;;;4.07;;
8291;SDS011;4184;42.724;23.308;2022-07-23T02:02:16;4.83;;;4.07;;
8291;SDS011;4184;42.724;23.308;2022-07-23T02:04:43;7.23;;;4.33;;
8291;SDS011;4184;42.724;23.308;2022-07-23T02:07:11;5.40;;;4.17;;
8291;SDS011;4184;42.724;23.308;2022-07-23T02:09:39;4.83;;;4.40;;
8291;SDS011;4184;42.724;23.308;2022-07-23T02:12:06;4.03;;;3.63;;
8291;SDS011;4184;42.724;23.308;2022-07-23T02:14:35;5.97;;;4.20;;
8291;SDS011;4184;42.724;23.308;2022-07-23T02:17:02;4.93;;;4.07;;
8291;SDS011;4184;42.724;23.308;2022-07-23T02:19:30;5.20;;;3.80;;
8291;SDS011;4184;42.724;23.308;2022-07-23T02:21:58;4.97;;;4.13;;
8291;SDS011;4184;42.724;23.308;2022-07-23T02:24:25;7.20;;;4.60;;
8291;SDS011;4184;42.724;23.308;2022-07-23T02:26:52;5.53;;;4.67;;
8291;SDS011;4184;42.724;23.308;2022-07-23T02:29:20;6.13;;;4.10;;
8291;SDS011;4184;42.724;23.308;2022-07-23T02:31:49;7.77;;;4.33;;
8291;SDS011;4184;42.724;23.308;2022-07-23T02:34:16;4.63;;;4.23;;
8291;SDS011;4184;42.724;23.308;2022-07-23T02:36:44;5.37;;;4.60;;
8291;SDS011;4184;42.724;23.308;2022-07-23T02:39:11;5.03;;;4.23;;
8291;SDS011;4184;42.724;23.308;2022-07-23T02:41:39;4.80;;;4.33;;
8291;SDS011;4184;42.724;23.308;2022-07-23T02:44:07;7.67;;;4.93;;
8291;SDS011;4184;42.724;23.308;2022-07-23T02:46:34;7.27;;;4.73;;
8291;SDS011;4184;42.724;23.308;2022-07-23T02:49:03;6.27;;;4.77;;
8291;SDS011;4184;42.724;23.308;2022-07-23T02:51:30;7.73;;;4.60;;
8291;SDS011;4184;42.724;23.308;2022-07-23T02:53:58;8.47;;;4.80;;
8291;SDS011;4184;42.724;23.308;2022-07-23T02:56:25;7.70;;;4.60;;
8291;SDS011;4184;42.724;23.308;2022-07-23T02:58:53;7.10;;;4.70;;
8291;SDS011;4184;42.724;23.308;2022-07-23T03:01:20;5.23;;;4.30;;
8291;SDS011;4184;42.724;23.308;2022-07-23T03:03:48;6.10;;;4.97;;
8291;SDS011;4184;42.724;23.308;2022-07-23T03:06:17;8.13;;;4.50;;
8291;SDS011;4184;42.724;23.308;2022-07-23T03:08:45;5.37;;;4.60;;
8291;SDS011;4184;42.724;23.308;2022-07-23T03:11:12;6.73;;;5.13;;
8291;SDS011;4184;42.724;23.308;2022-07-23T03:13:40;6.20;;;4.50;;
8291;SDS011;4184;42.724;23.308;2022-07-23T03:16:07;5.17;;;4.67;;
8291;SDS011;4184;42.724;23.308;2022-07-23T03:18:35;9.63;;;5.43;;
8291;SDS011;4184;42.724;23.308;2022-07-23T03:21:03;5.50;;;4.97;;
8291;SDS011;4184;42.724;23.308;2022-07-23T03:23:32;5.30;;;4.80;;
8291;SDS011;4184;42.724;23.308;2022-07-23T03:25:59;6.87;;;4.90;;
8291;SDS011;4184;42.724;23.308;2022-07-23T03:28:27;5.83;;;4.50;;
8291;SDS011;4184;42.724;23.308;2022-07-23T03:30:54;6.57;;;5.20;;
8291;SDS011;4184;42.724;23.308;2022-07-23T03:33:23;5.63;;;5.00;;
8291;SDS011;4184;42.724;23.308;2022-07-23T03:35:50;6.50;;;5.50;;
8291;SDS011;4184;42.724;23.308;2022-07-23T03:38:18;5.30;;;4.80;;
8291;SDS011;4184;42.724;23.308;2022-07-23T03:40:46;5.57;;;5.07;;
8291;SDS011;4184;42.724;23.308;2022-07-23T03:43:14;8.10;;;4.83;;
8291;SDS011;4184;42.724;23.308;2022-07-23T03:45:41;5.90;;;4.77;;
8291;SDS011;4184;42.724;23.308;2022-07-23T03:48:09;5.73;;;4.70;;
8291;SDS011;4184;42.724;23.308;2022-07-23T03:50:36;5.50;;;4.97;;
8291;SDS011;4184;42.724;23.308;2022-07-23T03:53:04;8.50;;;5.07;;
8291;SDS011;4184;42.724;23.308;2022-07-23T03:55:31;6.97;;;4.80;;
8291;SDS011;4184;42.724;23.308;2022-07-23T03:58:00;6.33;;;4.77;;
8291;SDS011;4184;42.724;23.308;2022-07-23T04:00:28;9.50;;;5.23;;
8291;SDS011;4184;42.724;23.308;2022-07-23T04:02:55;5.53;;;4.47;;
8291;SDS011;4184;42.724;23.308;2022-07-23T04:05:23;5.27;;;4.17;;
8291;SDS011;4184;42.724;23.308;2022-07-23T04:07:50;5.67;;;5.00;;
8291;SDS011;4184;42.724;23.308;2022-07-23T04:10:18;7.60;;;5.80;;
8291;SDS011;4184;42.724;23.308;2022-07-23T04:12:46;6.40;;;5.30;;
8291;SDS011;4184;42.724;23.308;2022-07-23T04:15:14;5.67;;;5.00;;
8291;SDS011;4184;42.724;23.308;2022-07-23T04:17:42;5.13;;;4.63;;
8291;SDS011;4184;42.724;23.308;2022-07-23T04:20:11;5.97;;;5.30;;
8291;SDS011;4184;42.724;23.308;2022-07-23T04:22:39;5.43;;;4.93;;
8291;SDS011;4184;42.724;23.308;2022-07-23T04:25:07;5.40;;;4.87;;
8291;SDS011;4184;42.724;23.308;2022-07-23T04:27:34;6.73;;;5.07;;
8291;SDS011;4184;42.724;23.308;2022-07-23T04:30:02;5.27;;;4.77;;
8291;SDS011;4184;42.724;23.308;2022-07-23T04:32:32;6.80;;;4.67;;
8291;SDS011;4184;42.724;23.308;2022-07-23T04:34:59;6.10;;;4.60;;
8291;SDS011;4184;42.724;23.308;2022-07-23T04:37:27;5.53;;;4.57;;
8291;SDS011;4184;42.724;23.308;2022-07-23T04:39:55;5.67;;;4.67;;
8291;SDS011;4184;42.724;23.308;2022-07-23T04:42:22;7.20;;;4.90;;
8291;SDS011;4184;42.724;23.308;2022-07-23T04:44:49;5.37;;;4.83;;
8291;SDS011;4184;42.724;23.308;2022-07-23T04:47:17;5.30;;;4.80;;
8291;SDS011;4184;42.724;23.308;2022-07-23T04:49:46;6.17;;;5.20;;
8291;SDS011;4184;42.724;23.308;2022-07-23T04:52:13;6.20;;;5.20;;
8291;SDS011;4184;42.724;23.308;2022-07-23T04:54:41;5.37;;;4.43;;
8291;SDS011;4184;42.724;23.308;2022-07-23T04:57:08;5.00;;;4.50;;
8291;SDS011;4184;42.724;23.308;2022-07-23T04:59:36;5.07;;;4.40;;
8291;SDS011;4184;42.724;23.308;2022-07-23T05:02:03;4.87;;;4.47;;
8291;SDS011;4184;42.724;23.308;2022-07-23T05:04:31;4.27;;;3.87;;
8291;SDS011;4184;42.724;23.308;2022-07-23T05:07:00;4.20;;;3.80;;
8291;SDS011;4184;42.724;23.308;2022-07-23T05:09:27;5.43;;;4.10;;
8291;SDS011;4184;42.724;23.308;2022-07-23T05:11:55;4.97;;;4.27;;
8291;SDS011;4184;42.724;23.308;2022-07-23T05:14:22;5.00;;;4.50;;
8291;SDS011;4184;42.724;23.308;2022-07-23T05:16:50;4.90;;;4.50;;
8291;SDS011;4184;42.724;23.308;2022-07-23T05:19:17;5.10;;;4.60;;
8291;SDS011;4184;42.724;23.308;2022-07-23T05:21:45;5.00;;;4.60;;
8291;SDS011;4184;42.724;23.308;2022-07-23T05:24:14;7.23;;;4.83;;
8291;SDS011;4184;42.724;23.308;2022-07-23T05:26:41;4.70;;;4.30;;
8291;SDS011;4184;42.724;23.308;2022-07-23T05:29:09;4.67;;;4.27;;
8291;SDS011;4184;42.724;23.308;2022-07-23T05:31:36;5.20;;;4.70;;
8291;SDS011;4184;42.724;23.308;2022-07-23T05:34:04;5.20;;;4.20;;
8291;SDS011;4184;42.724;23.308;2022-07-23T05:36:31;5.13;;;4.63;;
8291;SDS011;4184;42.724;23.308;2022-07-23T05:38:59;4.83;;;4.43;;
8291;SDS011;4184;42.724;23.308;2022-07-23T05:41:28;4.17;;;3.83;;
8291;SDS011;4184;42.724;23.308;2022-07-23T05:43:55;4.70;;;4.27;;
8291;SDS011;4184;42.724;23.308;2022-07-23T05:46:23;4.40;;;4.00;;
8291;SDS011;4184;42.724;23.308;2022-07-23T05:48:50;4.73;;;3.90;;
8291;SDS011;4184;42.724;23.308;2022-07-23T05:51:21;4.30;;;3.97;;
8291;SDS011;4184;42.724;23.308;2022-07-23T05:53:49;4.40;;;4.00;;
8291;SDS011;4184;42.724;23.308;2022-07-23T05:56:17;4.70;;;4.30;;
8291;SDS011;4184;42.724;23.308;2022-07-23T05:58:47;4.57;;;3.50;;
8291;SDS011;4184;42.724;23.308;2022-07-23T06:01:14;4.13;;;3.77;;
8291;SDS011;4184;42.724;23.308;2022-07-23T06:03:42;4.40;;;4.00;;
8291;SDS011;4184;42.724;23.308;2022-07-23T06:06:10;5.83;;;5.17;;
8291;SDS011;4184;42.724;23.308;2022-07-23T06:08:37;6.93;;;4.60;;
8291;SDS011;4184;42.724;23.308;2022-07-23T06:11:05;4.70;;;4.13;;
8291;SDS011;4184;42.724;23.308;2022-07-23T06:13:32;4.93;;;4.40;;
8291;SDS011;4184;42.724;23.308;2022-07-23T06:16:01;5.60;;;4.40;;
8291;SDS011;4184;42.724;23.308;2022-07-23T06:18:29;4.90;;;4.50;;
8291;SDS011;4184;42.724;23.308;2022-07-23T06:20:56;4.80;;;4.30;;
8291;SDS011;4184;42.724;23.308;2022-07-23T06:23:24;4.70;;;3.90;;
8291;SDS011;4184;42.724;23.308;2022-07-23T06:25:51;7.97;;;4.17;;
8291;SDS011;4184;42.724;23.308;2022-07-23T06:28:19;4.50;;;4.10;;
8291;SDS011;4184;42.724;23.308;2022-07-23T06:30:47;4.53;;;4.13;;
8291;SDS011;4184;42.724;23.308;2022-07-23T06:33:16;5.47;;;4.90;;
8291;SDS011;4184;42.724;23.308;2022-07-23T06:35:43;4.60;;;4.13;;
8291;SDS011;4184;42.724;23.308;2022-07-23T06:38:11;6.47;;;4.30;;
8291;SDS011;4184;42.724;23.308;2022-07-23T06:40:39;5.93;;;4.50;;
8291;SDS011;4184;42.724;23.308;2022-07-23T06:43:06;6.67;;;4.40;;
8291;SDS011;4184;42.724;23.308;2022-07-23T06:45:34;5.17;;;4.67;;
8291;SDS011;4184;42.724;23.308;2022-07-23T06:48:01;6.50;;;4.03;;
8291;SDS011;4184;42.724;23.308;2022-07-23T06:50:30;7.80;;;4.83;;
8291;SDS011;4184;42.724;23.308;2022-07-23T06:52:58;5.70;;;4.60;;
8291;SDS011;4184;42.724;23.308;2022-07-23T06:55:25;6.23;;;4.83;;
8291;SDS011;4184;42.724;23.308;2022-07-23T06:57:53;5.40;;;4.80;;
8291;SDS011;4184;42.724;23.308;2022-07-23T07:00:21;7.37;;;4.70;;
8291;SDS011;4184;42.724;23.308;2022-07-23T07:02:48;7.00;;;4.90;;
8291;SDS011;4184;42.724;23.308;2022-07-23T07:05:16;5.93;;;5.00;;
8291;SDS011;4184;42.724;23.308;2022-07-23T07:07:44;5.20;;;4.67;;
8291;SDS011;4184;42.724;23.308;2022-07-23T07:10:13;5.33;;;4.83;;
8291;SDS011;4184;42.724;23.308;2022-07-23T07:12:41;7.57;;;4.67;;
8291;SDS011;4184;42.724;23.308;2022-07-23T07:15:09;6.63;;;5.50;;
8291;SDS011;4184;42.724;23.308;2022-07-23T07:17:36;6.23;;;5.00;;
8291;SDS011;4184;42.724;23.308;2022-07-23T07:20:04;7.17;;;5.10;;
8291;SDS011;4184;42.724;23.308;2022-07-23T07:22:33;5.97;;;5.10;;
8291;SDS011;4184;42.724;23.308;2022-07-23T07:25:02;5.87;;;4.47;;
8291;SDS011;4184;42.724;23.308;2022-07-23T07:27:30;5.27;;;4.20;;
8291;SDS011;4184;42.724;23.308;2022-07-23T07:29:58;4.90;;;4.27;;
8291;SDS011;4184;42.724;23.308;2022-07-23T07:32:25;5.67;;;4.10;;
8291;SDS011;4184;42.724;23.308;2022-07-23T07:34:53;5.27;;;4.00;;
8291;SDS011;4184;42.724;23.308;2022-07-23T07:37:20;5.30;;;4.00;;
8291;SDS011;4184;42.724;23.308;2022-07-23T07:39:48;4.00;;;3.70;;
8291;SDS011;4184;42.724;23.308;2022-07-23T07:42:17;3.47;;;3.17;;
8291;SDS011;4184;42.724;23.308;2022-07-23T07:44:45;4.30;;;3.90;;
8291;SDS011;4184;42.724;23.308;2022-07-23T07:47:12;3.80;;;3.50;;
8291;SDS011;4184;42.724;23.308;2022-07-23T07:49:41;3.80;;;3.50;;
8291;SDS011;4184;42.724;23.308;2022-07-23T07:52:09;3.57;;;3.27;;
8291;SDS011;4184;42.724;23.308;2022-07-23T07:54:37;7.13;;;3.50;;
8291;SDS011;4184;42.724;23.308;2022-07-23T07:57:04;3.70;;;3.40;;
8291;SDS011;4184;42.724;23.308;2022-07-23T07:59:33;5.30;;;3.40;;
8291;SDS011;4184;42.724;23.308;2022-07-23T08:02:01;4.63;;;3.70;;
8291;SDS011;4184;42.724;23.308;2022-07-23T08:04:28;4.17;;;3.70;;
8291;SDS011;4184;42.724;23.308;2022-07-23T08:06:56;3.90;;;3.50;;
8291;SDS011;4184;42.724;23.308;2022-07-23T08:09:25;4.23;;;3.20;;
8291;SDS011;4184;42.724;23.308;2022-07-23T08:11:52;3.53;;;3.23;;
8291;SDS011;4184;42.724;23.308;2022-07-23T08:14:20;3.97;;;3.47;;
8291;SDS011;4184;42.724;23.308;2022-07-23T08:16:49;4.23;;;3.63;;
8291;SDS011;4184;42.724;23.308;2022-07-23T08:19:17;4.00;;;3.43;;
8291;SDS011;4184;42.724;23.308;2022-07-23T08:21:44;4.27;;;3.33;;
8291;SDS011;4184;42.724;23.308;2022-07-23T08:24:12;4.60;;;3.40;;
8291;SDS011;4184;42.724;23.308;2022-07-23T08:26:40;4.50;;;3.43;;
8291;SDS011;4184;42.724;23.308;2022-07-23T08:29:07;5.33;;;3.93;;
8291;SDS011;4184;42.724;23.308;2022-07-23T08:31:35;5.40;;;3.70;;
8291;SDS011;4184;42.724;23.308;2022-07-23T08:34:04;3.50;;;3.00;;
8291;SDS011;4184;42.724;23.308;2022-07-23T08:36:31;4.20;;;3.80;;
8291;SDS011;4184;42.724;23.308;2022-07-23T08:38:59;4.50;;;3.93;;
8291;SDS011;4184;42.724;23.308;2022-07-23T08:41:28;3.57;;;3.10;;
8291;SDS011;4184;42.724;23.308;2022-07-23T08:43:55;4.10;;;3.70;;
8291;SDS011;4184;42.724;23.308;2022-07-23T08:46:26;4.90;;;4.40;;
8291;SDS011;4184;42.724;23.308;2022-07-23T08:48:54;4.50;;;3.70;;
8291;SDS011;4184;42.724;23.308;2022-07-23T08:51:23;4.00;;;3.60;;
8291;SDS011;4184;42.724;23.308;2022-07-23T08:53:53;4.50;;;3.67;;
8291;SDS011;4184;42.724;23.308;2022-07-23T08:56:22;5.00;;;3.37;;
8291;SDS011;4184;42.724;23.308;2022-07-23T08:58:50;4.33;;;3.47;;
8291;SDS011;4184;42.724;23.308;2022-07-23T09:01:19;3.73;;;3.43;;
8291;SDS011;4184;42.724;23.308;2022-07-23T09:03:47;5.47;;;3.63;;
8291;SDS011;4184;42.724;23.308;2022-07-23T09:06:14;3.57;;;3.27;;
8291;SDS011;4184;42.724;23.308;2022-07-23T09:08:43;4.53;;;3.50;;
8291;SDS011;4184;42.724;23.308;2022-07-23T09:11:13;3.73;;;3.30;;
8291;SDS011;4184;42.724;23.308;2022-07-23T09:13:42;3.87;;;3.53;;
8291;SDS011;4184;42.724;23.308;2022-07-23T09:16:14;4.00;;;3.40;;
8291;SDS011;4184;42.724;23.308;2022-07-23T09:18:45;3.63;;;3.33;;
8291;SDS011;4184;42.724;23.308;2022-07-23T09:21:15;3.80;;;3.03;;
8291;SDS011;4184;42.724;23.308;2022-07-23T09:23:46;4.53;;;3.30;;
8291;SDS011;4184;42.724;23.308;2022-07-23T09:26:19;3.47;;;3.17;;
8291;SDS011;4184;42.724;23.308;2022-07-23T09:28:52;3.87;;;3.23;;
8291;SDS011;4184;42.724;23.308;2022-07-23T09:31:22;4.40;;;3.50;;
8291;SDS011;4184;42.724;23.308;2022-07-23T09:33:50;3.60;;;3.30;;
8291;SDS011;4184;42.724;23.308;2022-07-23T09:36:28;3.87;;;3.37;;
8291;SDS011;4184;42.724;23.308;2022-07-23T09:38:57;3.57;;;3.27;;
8291;SDS011;4184;42.724;23.308;2022-07-23T09:41:25;4.13;;;3.17;;
8291;SDS011;4184;42.724;23.308;2022-07-23T09:44:06;3.77;;;3.47;;
8291;SDS011;4184;42.724;23.308;2022-07-23T09:46:35;4.93;;;3.37;;
8291;SDS011;4184;42.724;23.308;2022-07-23T09:49:10;3.90;;;3.60;;
8291;SDS011;4184;42.724;23.308;2022-07-23T09:51:51;3.70;;;3.40;;
8291;SDS011;4184;42.724;23.308;2022-07-23T09:54:30;3.70;;;3.27;;
8291;SDS011;4184;42.724;23.308;2022-07-23T09:57:00;3.47;;;2.87;;
8291;SDS011;4184;42.724;23.308;2022-07-23T09:59:32;3.20;;;2.90;;
8291;SDS011;4184;42.724;23.308;2022-07-23T10:02:02;2.90;;;2.70;;
8291;SDS011;4184;42.724;23.308;2022-07-23T10:04:31;2.80;;;2.60;;
8291;SDS011;4184;42.724;23.308;2022-07-23T10:07:00;3.20;;;2.77;;
8291;SDS011;4184;42.724;23.308;2022-07-23T10:09:32;3.80;;;3.37;;
8291;SDS011;4184;42.724;23.308;2022-07-23T10:12:02;3.10;;;2.87;;
8291;SDS011;4184;42.724;23.308;2022-07-23T10:14:45;3.10;;;2.80;;
8291;SDS011;4184;42.724;23.308;2022-07-23T10:17:13;4.67;;;3.40;;
8291;SDS011;4184;42.724;23.308;2022-07-23T10:19:41;3.13;;;2.83;;
8291;SDS011;4184;42.724;23.308;2022-07-23T10:22:10;3.57;;;3.00;;
8291;SDS011;4184;42.724;23.308;2022-07-23T10:24:46;3.20;;;2.97;;
8291;SDS011;4184;42.724;23.308;2022-07-23T10:30:27;3.17;;;2.87;;
8291;SDS011;4184;42.724;23.308;2022-07-23T10:33:12;3.93;;;2.93;;
8291;SDS011;4184;42.724;23.308;2022-07-23T10:35:47;3.10;;;2.67;;
8291;SDS011;4184;42.724;23.308;2022-07-23T10:38:20;2.80;;;2.60;;
8291;SDS011;4184;42.724;23.308;2022-07-23T10:40:56;3.00;;;2.60;;
8291;SDS011;4184;42.724;23.308;2022-07-23T10:43:26;3.43;;;3.13;;
8291;SDS011;4184;42.724;23.308;2022-07-23T10:45:55;4.00;;;2.70;;
8291;SDS011;4184;42.724;23.308;2022-07-23T10:48:42;3.27;;;2.70;;
8291;SDS011;4184;42.724;23.308;2022-07-23T10:51:11;2.57;;;2.37;;
8291;SDS011;4184;42.724;23.308;2022-07-23T10:53:56;3.03;;;2.63;;
8291;SDS011;4184;42.724;23.308;2022-07-23T11:02:38;3.43;;;3.10;;
8291;SDS011;4184;42.724;23.308;2022-07-23T11:05:08;2.63;;;2.43;;
8291;SDS011;4184;42.724;23.308;2022-07-23T11:07:36;2.93;;;2.73;;
8291;SDS011;4184;42.724;23.308;2022-07-23T11:10:32;3.20;;;2.90;;
8291;SDS011;4184;42.724;23.308;2022-07-23T11:16:04;4.13;;;2.67;;
8291;SDS011;4184;42.724;23.308;2022-07-23T11:19:07;3.97;;;2.80;;
8291;SDS011;4184;42.724;23.308;2022-07-23T11:21:45;4.87;;;2.80;;
8291;SDS011;4184;42.724;23.308;2022-07-23T11:24:15;3.30;;;3.00;;
8291;SDS011;4184;42.724;23.308;2022-07-23T11:26:52;5.23;;;3.17;;
8291;SDS011;4184;42.724;23.308;2022-07-23T11:29:38;3.20;;;2.90;;
8291;SDS011;4184;42.724;23.308;2022-07-23T11:32:08;5.57;;;2.93;;
8291;SDS011;4184;42.724;23.308;2022-07-23T11:34:45;3.00;;;2.70;;
8291;SDS011;4184;42.724;23.308;2022-07-23T11:37:26;3.30;;;2.80;;
8291;SDS011;4184;42.724;23.308;2022-07-23T11:39:57;4.13;;;3.07;;
8291;SDS011;4184;42.724;23.308;2022-07-23T11:42:25;3.77;;;3.47;;
8291;SDS011;4184;42.724;23.308;2022-07-23T11:44:54;3.40;;;2.70;;
8291;SDS011;4184;42.724;23.308;2022-07-23T11:47:22;4.87;;;3.00;;
8291;SDS011;4184;42.724;23.308;2022-07-23T11:49:52;3.63;;;2.90;;
8291;SDS011;4184;42.724;23.308;2022-07-23T11:52:21;3.33;;;2.70;;
8291;SDS011;4184;42.724;23.308;2022-07-23T11:54:50;3.63;;;2.80;;
8291;SDS011;4184;42.724;23.308;2022-07-23T11:57:19;2.73;;;2.40;;
8291;SDS011;4184;42.724;23.308;2022-07-23T11:59:51;3.73;;;2.50;;
8291;SDS011;4184;42.724;23.308;2022-07-23T12:02:22;2.53;;;2.20;;
8291;SDS011;4184;42.724;23.308;2022-07-23T12:04:50;4.30;;;2.60;;
8291;SDS011;4184;42.724;23.308;2022-07-23T12:07:25;2.53;;;2.33;;
8291;SDS011;4184;42.724;23.308;2022-07-23T12:09:55;3.33;;;2.67;;
8291;SDS011;4184;42.724;23.308;2022-07-23T12:12:24;2.60;;;2.40;;
8291;SDS011;4184;42.724;23.308;2022-07-23T12:14:53;3.57;;;2.57;;
8291;SDS011;4184;42.724;23.308;2022-07-23T12:17:27;4.87;;;2.60;;
8291;SDS011;4184;42.724;23.308;2022-07-23T12:19:56;3.00;;;2.50;;
8291;SDS011;4184;42.724;23.308;2022-07-23T12:22:25;4.13;;;2.60;;
8291;SDS011;4184;42.724;23.308;2022-07-23T12:25:02;3.00;;;2.80;;
8291;SDS011;4184;42.724;23.308;2022-07-23T12:27:32;3.60;;;2.47;;
8291;SDS011;4184;42.724;23.308;2022-07-23T12:32:53;4.07;;;2.53;;
8291;SDS011;4184;42.724;23.308;2022-07-23T12:35:23;2.83;;;2.33;;
8291;SDS011;4184;42.724;23.308;2022-07-23T12:37:59;2.70;;;2.50;;
8291;SDS011;4184;42.724;23.308;2022-07-23T12:40:30;2.70;;;2.50;;
8291;SDS011;4184;42.724;23.308;2022-07-23T12:43:00;2.70;;;2.50;;
8291;SDS011;4184;42.724;23.308;2022-07-23T12:45:41;2.90;;;2.17;;
8291;SDS011;4184;42.724;23.308;2022-07-23T12:48:23;5.17;;;2.77;;
8291;SDS011;4184;42.724;23.308;2022-07-23T12:50:52;4.47;;;2.80;;
8291;SDS011;4184;42.724;23.308;2022-07-23T12:53:24;4.17;;;2.67;;
8291;SDS011;4184;42.724;23.308;2022-07-23T12:55:58;4.23;;;3.00;;
8291;SDS011;4184;42.724;23.308;2022-07-23T12:58:38;4.77;;;3.07;;
8291;SDS011;4184;42.724;23.308;2022-07-23T13:01:08;6.67;;;3.20;;
8291;SDS011;4184;42.724;23.308;2022-07-23T13:03:55;3.03;;;2.70;;
8291;SDS011;4184;42.724;23.308;2022-07-23T13:06:24;3.23;;;2.63;;
8291;SDS011;4184;42.724;23.308;2022-07-23T13:08:53;2.87;;;2.60;;
8291;SDS011;4184;42.724;23.308;2022-07-23T13:11:20;3.60;;;3.00;;
8291;SDS011;4184;42.724;23.308;2022-07-23T13:13:48;3.57;;;2.70;;
8291;SDS011;4184;42.724;23.308;2022-07-23T13:16:16;3.07;;;2.60;;
8291;SDS011;4184;42.724;23.308;2022-07-23T13:18:44;3.93;;;3.10;;
8291;SDS011;4184;42.724;23.308;2022-07-23T13:21:13;2.87;;;2.57;;
8291;SDS011;4184;42.724;23.308;2022-07-23T13:23:41;4.93;;;2.73;;
8291;SDS011;4184;42.724;23.308;2022-07-23T13:26:09;2.50;;;2.30;;
8291;SDS011;4184;42.724;23.308;2022-07-23T13:28:37;3.30;;;2.90;;
8291;SDS011;4184;42.724;23.308;2022-07-23T13:31:05;4.43;;;2.40;;
8291;SDS011;4184;42.724;23.308;2022-07-23T13:33:32;2.70;;;2.50;;
8291;SDS011;4184;42.724;23.308;2022-07-23T13:36:00;3.37;;;2.80;;
8291;SDS011;4184;42.724;23.308;2022-07-23T13:38:30;4.10;;;2.67;;
8291;SDS011;4184;42.724;23.308;2022-07-23T13:40:58;4.03;;;2.53;;
8291;SDS011;4184;42.724;23.308;2022-07-23T13:43:28;2.50;;;2.27;;
8291;SDS011;4184;42.724;23.308;2022-07-23T13:45:56;3.57;;;2.50;;
8291;SDS011;4184;42.724;23.308;2022-07-23T13:48:23;6.10;;;2.80;;
8291;SDS011;4184;42.724;23.308;2022-07-23T13:50:51;3.13;;;2.43;;
8291;SDS011;4184;42.724;23.308;2022-07-23T13:53:19;4.43;;;2.73;;
8291;SDS011;4184;42.724;23.308;2022-07-23T13:55:51;3.23;;;2.60;;
8291;SDS011;4184;42.724;23.308;2022-07-23T13:58:19;3.63;;;2.60;;
8291;SDS011;4184;42.724;23.308;2022-07-23T14:00:48;4.50;;;2.70;;
8291;SDS011;4184;42.724;23.308;2022-07-23T14:03:18;3.37;;;2.43;;
8291;SDS011;4184;42.724;23.308;2022-07-23T14:05:47;2.87;;;2.60;;
8291;SDS011;4184;42.724;23.308;2022-07-23T14:08:15;3.30;;;2.53;;
8291;SDS011;4184;42.724;23.308;2022-07-23T14:10:43;2.70;;;2.50;;
8291;SDS011;4184;42.724;23.308;2022-07-23T14:13:12;3.10;;;2.60;;
8291;SDS011;4184;42.724;23.308;2022-07-23T14:15:39;3.17;;;2.83;;
8291;SDS011;4184;42.724;23.308;2022-07-23T14:18:07;2.93;;;2.63;;
8291;SDS011;4184;42.724;23.308;2022-07-23T14:20:34;2.83;;;2.23;;
8291;SDS011;4184;42.724;23.308;2022-07-23T14:23:02;2.43;;;2.20;;
8291;SDS011;4184;42.724;23.308;2022-07-23T14:25:30;5.23;;;2.77;;
8291;SDS011;4184;42.724;23.308;2022-07-23T14:27:57;2.40;;;2.20;;
8291;SDS011;4184;42.724;23.308;2022-07-23T14:30:26;2.33;;;2.13;;
8291;SDS011;4184;42.724;23.308;2022-07-23T14:32:54;2.40;;;2.20;;
8291;SDS011;4184;42.724;23.308;2022-07-23T14:35:21;2.87;;;2.10;;
8291;SDS011;4184;42.724;23.308;2022-07-23T14:37:49;2.60;;;2.40;;
8291;SDS011;4184;42.724;23.308;2022-07-23T14:40:17;3.10;;;2.37;;
8291;SDS011;4184;42.724;23.308;2022-07-23T14:42:44;2.37;;;2.13;;
8291;SDS011;4184;42.724;23.308;2022-07-23T14:45:12;2.77;;;2.50;;
8291;SDS011;4184;42.724;23.308;2022-07-23T14:47:41;2.60;;;2.40;;
8291;SDS011;4184;42.724;23.308;2022-07-23T14:50:09;2.40;;;2.20;;
8291;SDS011;4184;42.724;23.308;2022-07-23T14:52:36;3.07;;;2.30;;
8291;SDS011;4184;42.724;23.308;2022-07-23T14:55:04;2.60;;;2.17;;
8291;SDS011;4184;42.724;23.308;2022-07-23T14:57:33;3.13;;;2.30;;
8291;SDS011;4184;42.724;23.308;2022-07-23T15:00:00;2.70;;;2.10;;
8291;SDS011;4184;42.724;23.308;2022-07-23T15:02:28;3.23;;;2.13;;
8291;SDS011;4184;42.724;23.308;2022-07-23T15:04:57;3.00;;;2.20;;
8291;SDS011;4184;42.724;23.308;2022-07-23T15:07:26;2.80;;;2.53;;
8291;SDS011;4184;42.724;23.308;2022-07-23T15:09:54;5.40;;;2.30;;
8291;SDS011;4184;42.724;23.308;2022-07-23T15:12:22;2.70;;;2.50;;
8291;SDS011;4184;42.724;23.308;2022-07-23T15:14:50;2.50;;;2.30;;
8291;SDS011;4184;42.724;23.308;2022-07-23T15:17:17;4.03;;;2.53;;
8291;SDS011;4184;42.724;23.308;2022-07-23T15:19:45;2.90;;;2.43;;
8291;SDS011;4184;42.724;23.308;2022-07-23T15:22:14;2.57;;;2.40;;
8291;SDS011;4184;42.724;23.308;2022-07-23T15:24:41;4.47;;;2.80;;
8291;SDS011;4184;42.724;23.308;2022-07-23T15:27:09;2.93;;;2.63;;